Time;durP1;ratioP1;P1;durP2;ratioP2;P2;SDS_P1;SDS_P2;PMS_P1;PMS_P2;Temp;Humidity;BMP_temperature;BMP_pressure;BME280_temperature;BME280_humidity;BME280_pressure;Samples;Min_cycle;Max_cycle;Signal;HPM_P1;HPM_P2
2023/06/21 00:01:04;;;;;;;25.13;22.35;;;18.30;99.90;;;;;;5096929;28;20488;-56
2023/06/21 00:03:30;;;;;;;30.10;24.25;;;18.30;99.90;;;;;;5095838;28;20322;-56
2023/06/21 00:05:56;;;;;;;26.58;22.98;;;18.40;99.90;;;;;;5095845;28;20047;-56
2023/06/21 00:08:22;;;;;;;27.90;23.88;;;18.50;99.90;;;;;;5097773;28;20043;-56
2023/06/21 00:10:48;;;;;;;26.48;22.38;;;18.30;99.90;;;;;;5068980;28;20529;-57
2023/06/21 00:13:14;;;;;;;30.85;25.25;;;18.30;99.90;;;;;;5083388;28;20638;-56
2023/06/21 00:15:40;;;;;;;31.13;25.77;;;18.40;99.90;;;;;;5097644;28;20044;-56
2023/06/21 00:18:05;;;;;;;28.08;25.13;;;18.40;99.90;;;;;;5095696;28;20048;-57
2023/06/21 00:20:31;;;;;;;27.70;24.80;;;18.40;99.90;;;;;;5098096;28;20122;-56
2023/06/21 00:22:57;;;;;;;32.35;26.48;;;18.40;99.90;;;;;;5095199;28;20061;-57
2023/06/21 00:25:23;;;;;;;33.78;25.77;;;18.40;99.90;;;;;;5096737;28;20070;-56
2023/06/21 00:27:49;;;;;;;32.08;26.00;;;18.50;99.90;;;;;;5096683;28;20301;-57
2023/06/21 00:30:15;;;;;;;33.40;29.13;;;18.40;99.90;;;;;;5095771;28;20105;-57
2023/06/21 00:32:41;;;;;;;35.22;28.42;;;18.30;99.90;;;;;;5086582;28;20307;-57
2023/06/21 00:35:07;;;;;;;45.25;30.55;;;18.40;99.90;;;;;;5096062;28;20134;-56
2023/06/21 00:37:33;;;;;;;39.05;28.58;;;18.40;99.90;;;;;;5095526;28;20074;-57
2023/06/21 00:39:59;;;;;;;36.20;26.67;;;18.20;99.90;;;;;;5094717;28;20120;-57
2023/06/21 00:42:25;;;;;;;37.33;30.02;;;18.40;99.90;;;;;;5096206;28;20043;-56
2023/06/21 00:44:50;;;;;;;33.67;28.70;;;18.30;99.90;;;;;;5095336;28;20130;-57
2023/06/21 00:47:18;;;;;;;34.28;29.15;;;18.30;99.90;;;;;;5095316;28;20035;-57
2023/06/21 00:49:44;;;;;;;39.17;29.38;;;18.10;99.90;;;;;;5095648;28;20039;-56
2023/06/21 00:52:10;;;;;;;42.28;30.95;;;18.30;99.90;;;;;;5098190;27;20134;-57
2023/06/21 00:54:37;;;;;;;39.67;31.27;;;18.10;99.90;;;;;;5094791;28;20562;-57
2023/06/21 00:57:04;;;;;;;39.40;30.67;;;18.20;99.90;;;;;;5086898;28;20055;-56
2023/06/21 00:59:30;;;;;;;34.28;27.45;;;18.10;99.90;;;;;;5095566;28;20043;-57
2023/06/21 01:01:57;;;;;;;36.78;30.13;;;18.30;99.90;;;;;;5096030;28;20048;-56
2023/06/21 01:04:25;;;;;;;43.35;32.70;;;18.10;99.90;;;;;;5094886;28;20108;-57
2023/06/21 01:06:56;;;;;;;39.67;31.63;;;19.70;99.90;;;;;;5095693;28;20044;-57
2023/06/21 01:09:40;;;;;;;;;;;18.20;99.90;;;;;;5095598;28;20163;-57
2023/06/21 01:12:40;;;;;;;43.97;30.38;;;18.20;99.90;;;;;;5095266;28;19920;-56
2023/06/21 01:15:15;;;;;;;44.90;34.20;;;18.30;99.90;;;;;;5087295;28;20055;-57
2023/06/21 01:17:44;;;;;;;41.95;32.15;;;18.30;99.90;;;;;;5094467;28;20440;-57
2023/06/21 01:20:13;;;;;;;44.75;31.77;;;18.30;99.90;;;;;;5095445;28;20031;-56
2023/06/21 01:23:19;;;;;;;37.25;30.38;;;18.30;99.90;;;;;;5095907;28;20067;-57
2023/06/21 01:26:13;;;;;;;37.45;31.20;;;18.20;99.90;;;;;;5057123;28;20087;-56
2023/06/21 01:29:11;;;;;;;37.10;30.63;;;18.30;99.90;;;;;;5079437;28;20434;-57
2023/06/21 01:31:39;;;;;;;44.80;31.23;;;18.00;99.90;;;;;;5094363;28;20378;-57
2023/06/21 01:34:08;;;;;;;39.33;30.55;;;18.30;99.90;;;;;;5093415;28;20047;-57
2023/06/21 01:36:34;;;;;;;41.22;31.55;;;18.20;99.90;;;;;;5094729;28;20040;-57
2023/06/21 01:39:00;;;;;;;42.25;31.27;;;18.20;99.90;;;;;;5094601;28;20511;-57
2023/06/21 01:41:26;;;;;;;45.70;32.70;;;18.10;99.90;;;;;;5094583;28;20086;-57
2023/06/21 01:43:53;;;;;;;40.08;31.33;;;18.00;99.90;;;;;;5094788;28;20054;-57
2023/06/21 01:46:22;;;;;;;42.25;32.30;;;18.30;99.90;;;;;;5090506;28;20078;-57
2023/06/21 01:48:49;;;;;;;48.65;33.88;;;19.90;99.90;;;;;;5093597;28;20043;-57
2023/06/21 01:51:17;;;;;;;39.95;31.30;;;18.20;99.90;;;;;;5096789;28;20043;-57
2023/06/21 01:53:43;;;;;;;45.95;32.63;;;18.20;99.90;;;;;;5094837;28;20443;-57
2023/06/21 01:56:14;;;;;;;37.17;29.60;;;18.20;99.90;;;;;;5094490;28;20052;-57
2023/06/21 01:58:41;;;;;;;36.88;29.92;;;18.40;99.90;;;;;;5095141;28;20134;-57
2023/06/21 02:01:09;;;;;;;42.20;32.70;;;18.30;99.90;;;;;;5094753;28;20100;-57
2023/06/21 02:03:39;;;;;;;40.88;33.13;;;18.30;99.90;;;;;;5094093;28;20047;-57
2023/06/21 02:06:07;;;;;;;43.15;33.20;;;18.40;99.90;;;;;;5093740;28;20059;-57
2023/06/21 02:08:34;;;;;;;49.28;35.28;;;18.30;99.90;;;;;;5094634;28;20050;-57
2023/06/21 02:11:03;;;;;;;42.95;34.53;;;18.10;99.90;;;;;;5094410;28;20083;-57
2023/06/21 02:13:29;;;;;;;45.28;35.53;;;18.10;99.90;;;;;;5091933;28;20146;-57
2023/06/21 02:15:55;;;;;;;49.28;35.80;;;18.30;99.90;;;;;;5092631;28;20139;-57
2023/06/21 02:18:22;;;;;;;44.45;35.67;;;18.30;99.90;;;;;;5094812;28;20047;-57
2023/06/21 02:20:48;;;;;;;46.22;35.88;;;18.40;99.90;;;;;;5087713;28;20300;-58
2023/06/21 02:23:14;;;;;;;47.88;35.20;;;18.40;99.90;;;;;;5094789;28;20455;-57
2023/06/21 02:25:40;;;;;;;49.45;37.05;;;18.20;99.90;;;;;;5092567;28;20036;-58
2023/06/21 02:28:05;;;;;;;49.13;38.60;;;18.10;99.90;;;;;;5093793;28;20097;-58
2023/06/21 02:30:31;;;;;;;51.25;38.33;;;18.20;99.90;;;;;;5091347;28;20036;-57
2023/06/21 02:32:57;;;;;;;52.67;38.45;;;17.90;99.90;;;;;;5093623;28;20491;-57
2023/06/21 02:35:23;;;;;;;53.30;39.17;;;18.00;99.90;;;;;;5094192;28;20052;-58
2023/06/21 02:37:49;;;;;;;46.40;36.92;;;18.00;99.90;;;;;;5094842;28;20097;-57
2023/06/21 02:40:15;;;;;;;57.72;39.90;;;18.00;99.90;;;;;;5087420;28;20122;-58
2023/06/21 02:42:41;;;;;;;58.67;40.75;;;17.90;99.90;;;;;;5093312;28;20040;-57
2023/06/21 02:45:09;;;;;;;53.40;39.15;;;18.00;99.90;;;;;;5094062;28;20047;-58
2023/06/21 02:47:34;;;;;;;51.92;37.85;;;18.10;99.90;;;;;;5093160;28;20533;-58
2023/06/21 02:50:02;;;;;;;50.22;38.70;;;17.80;99.90;;;;;;5092346;28;20100;-58
2023/06/21 02:52:28;;;;;;;53.03;39.45;;;17.90;99.90;;;;;;5087566;28;20039;-58
2023/06/21 02:54:54;;;;;;;47.45;37.53;;;17.90;99.90;;;;;;5087881;28;20507;-58
2023/06/21 02:57:20;;;;;;;54.47;39.45;;;17.80;99.90;;;;;;5093607;28;20335;-57
2023/06/21 02:59:48;;;;;;;56.83;40.88;;;17.70;99.90;;;;;;5084702;28;20131;-57
2023/06/21 03:02:14;;;;;;;53.95;39.63;;;17.80;99.90;;;;;;5093660;28;20134;-58
2023/06/21 03:04:39;;;;;;;56.40;42.03;;;17.60;99.90;;;;;;5092833;28;20050;-57
2023/06/21 03:07:07;;;;;;;60.15;42.42;;;16.90;99.90;;;;;;5093341;28;20396;-57
2023/06/21 03:09:33;;;;;;;62.13;42.85;;;17.70;99.90;;;;;;5092399;28;20048;-58
2023/06/21 03:12:01;;;;;;;60.17;41.47;;;17.50;99.90;;;;;;5093065;28;20477;-58
2023/06/21 03:14:27;;;;;;;52.60;40.70;;;17.90;99.90;;;;;;5094023;28;20587;-57
2023/06/21 03:16:53;;;;;;;80.88;44.67;;;17.60;99.90;;;;;;5085009;28;20694;-57
2023/06/21 03:19:18;;;;;;;62.53;43.00;;;17.60;99.90;;;;;;5091957;28;20039;-58
2023/06/21 03:21:45;;;;;;;60.40;42.13;;;17.60;99.90;;;;;;5093767;28;20123;-58
2023/06/21 03:24:11;;;;;;;61.05;42.92;;;17.50;99.90;;;;;;5093364;28;20044;-58
2023/06/21 03:26:37;;;;;;;59.78;42.10;;;17.60;99.90;;;;;;5092440;28;20855;-57
2023/06/21 03:29:02;;;;;;;61.72;42.28;;;17.50;99.90;;;;;;5091937;28;20048;-58
2023/06/21 03:31:28;;;;;;;62.22;43.17;;;17.50;99.90;;;;;;5092781;28;20044;-58
2023/06/21 03:33:54;;;;;;;65.38;44.72;;;18.30;99.90;;;;;;5084085;28;20037;-58
2023/06/21 03:36:20;;;;;;;70.68;46.88;;;17.50;99.90;;;;;;5091770;28;20053;-56
2023/06/21 03:38:46;;;;;;;75.25;46.10;;;17.30;99.90;;;;;;5082377;28;20072;-56
2023/06/21 03:41:12;;;;;;;61.30;43.95;;;17.40;99.90;;;;;;5093921;28;20477;-56
2023/06/21 03:43:38;;;;;;;67.60;45.08;;;17.40;99.90;;;;;;5084857;28;20130;-56
2023/06/21 03:46:03;;;;;;;64.40;45.72;;;17.50;99.90;;;;;;5092303;28;20055;-57
2023/06/21 03:48:29;;;;;;;65.50;43.88;;;17.50;99.90;;;;;;5091690;28;20290;-56
2023/06/21 03:50:55;;;;;;;64.93;44.25;;;17.60;99.90;;;;;;5092845;28;20046;-56
2023/06/21 03:53:20;;;;;;;68.60;45.40;;;17.40;99.90;;;;;;5084695;28;20044;-56
2023/06/21 03:55:46;;;;;;;69.90;43.33;;;17.50;99.90;;;;;;5092751;28;20079;-56
2023/06/21 03:58:12;;;;;;;62.10;44.38;;;17.50;99.90;;;;;;5094594;28;20247;-56
2023/06/21 04:00:38;;;;;;;59.65;43.25;;;17.60;99.90;;;;;;5096698;28;20083;-56
2023/06/21 04:03:04;;;;;;;54.83;39.05;;;17.50;99.90;;;;;;5096696;28;20205;-57
2023/06/21 04:05:30;;;;;;;62.40;43.33;;;17.70;99.90;;;;;;5089193;28;20190;-56
2023/06/21 04:07:56;;;;;;;65.53;45.00;;;17.60;99.90;;;;;;5095707;28;20048;-56
2023/06/21 04:10:21;;;;;;;64.35;44.13;;;17.70;99.90;;;;;;5089096;28;20043;-56
2023/06/21 04:12:47;;;;;;;61.13;42.72;;;17.70;99.90;;;;;;5073091;28;20051;-56
2023/06/21 04:15:13;;;;;;;61.45;44.90;;;17.80;99.90;;;;;;5097156;28;20035;-56
2023/06/21 04:17:39;;;;;;;63.50;42.20;;;17.80;99.90;;;;;;5096062;28;20176;-56
2023/06/21 04:20:15;;;;;;;61.58;43.35;;;17.80;99.90;;;;;;5096593;28;20130;-56
2023/06/21 04:22:42;;;;;;;61.83;41.58;;;17.70;99.90;;;;;;5096839;28;20046;-56
2023/06/21 04:25:11;;;;;;;49.50;36.83;;;17.70;99.90;;;;;;5094710;28;20408;-56
2023/06/21 04:27:40;;;;;;;58.10;38.70;;;17.80;99.90;;;;;;5094967;28;20086;-56
2023/06/21 04:30:09;;;;;;;49.53;38.42;;;17.90;99.90;;;;;;5087173;28;20156;-55
2023/06/21 04:32:35;;;;;;;51.20;37.50;;;17.90;99.90;;;;;;5095484;28;20042;-56
2023/06/21 04:35:01;;;;;;;52.38;36.38;;;17.80;99.90;;;;;;5086102;28;20048;-56
2023/06/21 04:37:28;;;;;;;50.13;36.85;;;17.70;99.90;;;;;;5094221;28;20064;-56
2023/06/21 04:39:54;;;;;;;50.65;34.88;;;17.80;99.90;;;;;;5095718;28;20519;-57
2023/06/21 04:42:20;;;;;;;43.55;31.70;;;17.80;99.90;;;;;;5095930;28;20131;-57
2023/06/21 04:44:50;;;;;;;46.55;31.95;;;17.90;99.90;;;;;;5072598;28;20046;-56
2023/06/21 04:47:16;;;;;;;41.15;30.88;;;17.90;99.90;;;;;;5094376;28;20054;-56
2023/06/21 04:49:43;;;;;;;40.72;28.63;;;18.00;99.90;;;;;;5094017;28;20040;-57
2023/06/21 04:52:09;;;;;;;38.03;27.67;;;18.00;99.90;;;;;;5096677;28;20059;-56
2023/06/21 04:54:36;;;;;;;34.13;23.55;;;18.10;99.90;;;;;;5096061;28;20168;-57
2023/06/21 04:57:04;;;;;;;35.15;23.13;;;18.10;99.90;;;;;;5094558;28;20128;-56
2023/06/21 04:59:30;;;;;;;32.13;21.98;;;17.90;99.90;;;;;;5093680;28;20084;-56
2023/06/21 05:01:56;;;;;;;35.78;22.65;;;18.10;99.90;;;;;;5086025;28;20039;-57
2023/06/21 05:04:22;;;;;;;32.63;22.95;;;18.20;99.90;;;;;;5094392;28;20449;-57
2023/06/21 05:06:47;;;;;;;28.52;20.40;;;18.20;99.90;;;;;;5081355;28;20511;-57
2023/06/21 05:09:13;;;;;;;27.88;21.30;;;18.10;99.90;;;;;;5095159;28;20047;-57
2023/06/21 05:11:39;;;;;;;28.40;19.50;;;18.30;99.90;;;;;;5094176;28;20070;-58
2023/06/21 05:14:05;;;;;;;30.30;21.05;;;18.30;99.90;;;;;;5092794;28;20085;-58
2023/06/21 05:16:32;;;;;;;26.13;19.13;;;18.20;99.90;;;;;;5094258;28;20043;-58
2023/06/21 05:18:57;;;;;;;26.60;19.15;;;17.90;99.90;;;;;;5089247;28;20035;-57
2023/06/21 05:21:23;;;;;;;28.05;19.65;;;18.30;99.90;;;;;;5093204;28;20484;-57
2023/06/21 05:23:49;;;;;;;28.13;19.67;;;18.20;99.90;;;;;;5096448;28;20036;-57
2023/06/21 05:26:15;;;;;;;24.48;18.25;;;18.50;99.90;;;;;;5093301;28;20366;-57
2023/06/21 05:28:40;;;;;;;24.75;16.92;;;18.40;99.90;;;;;;5086920;28;20071;-57
2023/06/21 05:31:06;;;;;;;23.95;16.98;;;18.50;99.90;;;;;;5093177;28;21378;-57
2023/06/21 05:33:32;;;;;;;24.30;17.25;;;18.80;99.90;;;;;;5093953;28;20036;-57
2023/06/21 05:35:57;;;;;;;27.27;18.02;;;18.70;99.90;;;;;;5093143;28;20039;-57
2023/06/21 05:38:23;;;;;;;27.00;17.67;;;18.50;99.90;;;;;;5093935;28;20051;-57
2023/06/21 05:40:49;;;;;;;25.73;18.20;;;18.80;99.90;;;;;;5094224;28;20043;-57
2023/06/21 05:43:14;;;;;;;23.58;15.75;;;18.70;99.90;;;;;;5093482;28;20047;-57
2023/06/21 05:45:40;;;;;;;19.88;15.57;;;18.90;99.90;;;;;;5094002;28;20407;-56
2023/06/21 05:48:06;;;;;;;31.35;16.85;;;18.70;99.90;;;;;;5094798;28;20139;-57
2023/06/21 05:50:32;;;;;;;26.23;16.13;;;18.80;99.90;;;;;;5093449;28;20043;-57
2023/06/21 05:52:58;;;;;;;22.95;15.52;;;18.80;99.90;;;;;;5086745;28;20348;-57
2023/06/21 05:55:24;;;;;;;23.08;15.70;;;18.90;99.90;;;;;;5093311;28;21004;-57
2023/06/21 05:57:50;;;;;;;20.77;15.07;;;18.60;99.90;;;;;;5094121;28;20047;-57
2023/06/21 06:00:17;;;;;;;22.60;15.85;;;18.90;99.90;;;;;;5094139;28;20044;-56
2023/06/21 06:02:42;;;;;;;22.98;14.65;;;18.90;99.90;;;;;;5092767;28;20056;-57
2023/06/21 06:05:09;;;;;;;24.23;15.00;;;19.00;99.90;;;;;;5095025;28;20040;-57
2023/06/21 06:07:35;;;;;;;19.58;14.52;;;19.20;99.90;;;;;;5094226;28;20056;-56
2023/06/21 06:10:01;;;;;;;21.92;14.27;;;19.20;99.90;;;;;;5093663;28;20055;-57
2023/06/21 06:12:27;;;;;;;24.98;15.40;;;19.10;99.90;;;;;;5087394;28;20380;-57
2023/06/21 06:14:53;;;;;;;18.48;13.80;;;19.40;99.90;;;;;;5093978;28;20138;-57
2023/06/21 06:17:19;;;;;;;23.13;15.00;;;19.40;99.90;;;;;;5093123;28;20047;-56
2023/06/21 06:19:45;;;;;;;17.83;13.27;;;19.60;99.90;;;;;;5093999;28;20898;-57
2023/06/21 06:22:11;;;;;;;21.88;12.55;;;19.70;99.90;;;;;;5088313;28;20051;-57
2023/06/21 06:24:37;;;;;;;17.35;12.10;;;19.80;99.90;;;;;;5093306;28;20407;-57
2023/06/21 06:27:03;;;;;;;20.83;14.38;;;19.80;99.90;;;;;;5092997;28;20051;-57
2023/06/21 06:29:30;;;;;;;19.55;13.07;;;19.90;99.90;;;;;;5094380;28;20039;-57
2023/06/21 06:31:56;;;;;;;19.52;13.20;;;20.30;99.90;;;;;;5094026;28;20051;-57
2023/06/21 06:34:22;;;;;;;19.40;12.10;;;20.10;99.90;;;;;;5091616;28;20052;-57
2023/06/21 06:36:47;;;;;;;18.73;11.52;;;20.10;99.90;;;;;;5092846;28;20031;-56
2023/06/21 06:39:13;;;;;;;15.60;11.43;;;20.10;99.90;;;;;;5093936;28;20610;-57
2023/06/21 06:41:39;;;;;;;15.40;10.85;;;20.30;99.90;;;;;;5093336;28;20052;-57
2023/06/21 06:44:05;;;;;;;17.45;10.93;;;20.40;99.90;;;;;;5092218;28;20150;-57
2023/06/21 06:46:31;;;;;;;18.50;10.45;;;20.80;99.90;;;;;;5088273;28;20088;-57
2023/06/21 06:48:56;;;;;;;17.73;10.80;;;20.70;99.90;;;;;;5092585;28;20042;-57
2023/06/21 06:51:23;;;;;;;14.30;11.00;;;21.10;99.90;;;;;;5093558;28;20035;-57
2023/06/21 06:53:49;;;;;;;15.95;10.30;;;21.20;99.90;;;;;;5095125;28;20086;-56
2023/06/21 06:56:15;;;;;;;14.07;9.70;;;21.10;99.90;;;;;;5095038;28;20088;-57
2023/06/21 06:58:40;;;;;;;18.88;9.57;;;21.00;99.90;;;;;;5092254;28;20040;-57
2023/06/21 07:01:06;;;;;;;19.10;10.18;;;21.00;99.90;;;;;;5093166;28;20201;-57
2023/06/21 07:03:33;;;;;;;15.20;10.23;;;21.30;99.90;;;;;;5093102;28;20515;-57
2023/06/21 07:05:59;;;;;;;15.90;10.05;;;21.40;99.90;;;;;;5092592;28;20039;-57
2023/06/21 07:08:25;;;;;;;14.70;9.07;;;21.50;99.90;;;;;;5092304;28;20058;-57
2023/06/21 07:10:51;;;;;;;13.15;9.27;;;21.90;99.90;;;;;;5094223;28;20523;-57
2023/06/21 07:13:17;;;;;;;13.95;8.77;;;22.10;99.90;;;;;;5093019;28;20508;-57
2023/06/21 07:15:43;;;;;;;11.88;8.90;;;22.10;99.90;;;;;;5092903;28;20282;-59
2023/06/21 07:18:12;;;;;;;13.07;7.85;;;22.10;99.90;;;;;;5090987;28;20105;-58
2023/06/21 07:20:38;;;;;;;14.35;9.13;;;22.70;99.90;;;;;;5093548;28;20048;-58
2023/06/21 07:23:04;;;;;;;10.95;7.85;;;23.20;99.90;;;;;;5092269;28;20059;-58
2023/06/21 07:25:30;;;;;;;12.95;6.97;;;23.50;99.90;;;;;;5092361;28;20047;-59
2023/06/21 07:27:56;;;;;;;10.07;6.70;;;24.00;99.90;;;;;;5079943;28;20075;-58
2023/06/21 07:30:25;;;;;;;12.73;6.85;;;24.20;99.90;;;;;;5087263;28;20059;-58
2023/06/21 07:32:51;;;;;;;11.55;6.93;;;24.40;99.90;;;;;;5068301;28;20087;-58
2023/06/21 07:35:17;;;;;;;11.65;6.40;;;24.80;99.90;;;;;;5096941;28;20134;-58
2023/06/21 07:37:43;;;;;;;10.05;6.75;;;24.80;99.90;;;;;;5095796;28;20098;-58
2023/06/21 07:40:10;;;;;;;14.25;6.88;;;24.80;99.90;;;;;;5096681;28;20139;-58
2023/06/21 07:42:37;;;;;;;10.88;6.82;;;24.80;99.90;;;;;;5095311;28;20075;-58
2023/06/21 07:45:04;;;;;;;13.75;7.10;;;25.60;99.90;;;;;;5095149;28;20039;-58
2023/06/21 07:47:31;;;;;;;12.05;6.10;;;26.10;99.90;;;;;;5096385;28;20810;-58
2023/06/21 07:49:56;;;;;;;8.23;5.32;;;26.80;99.90;;;;;;5096243;28;20492;-58
2023/06/21 07:52:22;;;;;;;8.93;5.25;;;27.30;99.90;;;;;;5096366;28;20108;-58
2023/06/21 07:54:49;;;;;;;9.45;5.97;;;27.80;99.90;;;;;;5092323;28;20035;-58
2023/06/21 07:57:18;;;;;;;10.43;6.30;;;27.70;99.90;;;;;;5086189;28;20409;-58
2023/06/21 07:59:45;;;;;;;12.05;5.78;;;28.50;99.90;;;;;;5090305;28;20031;-58
2023/06/21 08:02:13;;;;;;;11.98;5.97;;;28.60;99.90;;;;;;5095451;28;20150;-58
2023/06/21 08:04:42;;;;;;;8.45;5.85;;;28.70;99.90;;;;;;5095492;28;20127;-58
2023/06/21 08:07:08;;;;;;;9.63;5.68;;;29.10;99.90;;;;;;5095158;28;20032;-58
2023/06/21 08:09:33;;;;;;;9.00;6.65;;;27.90;99.90;;;;;;5097302;28;20988;-57
2023/06/21 08:12:00;;;;;;;10.43;5.32;;;28.00;99.90;;;;;;5087859;28;20046;-57
2023/06/21 08:14:26;;;;;;;9.43;5.53;;;28.10;99.90;;;;;;5095603;28;20051;-57
2023/06/21 08:16:52;;;;;;;10.32;6.45;;;27.90;99.90;;;;;;5090209;28;20122;-57
2023/06/21 08:19:18;;;;;;;8.90;5.85;;;27.90;99.90;;;;;;5094519;28;20056;-57
2023/06/21 08:21:44;;;;;;;8.63;5.55;;;27.50;99.90;;;;;;5088253;28;20047;-57
2023/06/21 08:24:10;;;;;;;8.98;5.28;;;27.40;99.90;;;;;;5097068;28;20536;-57
2023/06/21 08:26:36;;;;;;;10.82;5.63;;;28.00;99.90;;;;;;5095654;28;20043;-57
2023/06/21 08:29:02;;;;;;;9.55;5.75;;;28.20;99.90;;;;;;5055043;28;20050;-57
2023/06/21 08:31:28;;;;;;;7.80;5.20;;;28.30;99.90;;;;;;5088311;28;20059;-57
2023/06/21 08:33:53;;;;;;;8.60;5.10;;;28.40;99.90;;;;;;5095844;28;20122;-57
2023/06/21 08:36:19;;;;;;;10.00;5.00;;;28.40;99.90;;;;;;5093550;28;20061;-57
2023/06/21 08:38:48;;;;;;;10.23;6.40;;;28.30;99.90;;;;;;5093502;28;20109;-57
2023/06/21 08:41:14;;;;;;;9.40;5.55;;;27.40;99.90;;;;;;5095069;28;20101;-59
2023/06/21 08:43:39;;;;;;;8.02;5.35;;;27.40;99.90;;;;;;5095448;28;20048;-57
2023/06/21 08:46:06;;;;;;;8.32;4.97;;;27.70;99.90;;;;;;5094345;28;20043;-57
2023/06/21 08:48:33;;;;;;;9.80;5.00;;;27.40;99.90;;;;;;5092676;28;20087;-57
2023/06/21 08:51:00;;;;;;;7.90;5.15;;;27.10;99.90;;;;;;5095543;28;20040;-57
2023/06/21 08:53:41;;;;;;;8.95;5.93;;;27.10;99.90;;;;;;5095696;28;20055;-57
2023/06/21 08:56:09;;;;;;;9.20;5.60;;;26.90;99.90;;;;;;5095439;28;20032;-57
2023/06/21 08:58:49;;;;;;;9.98;5.85;;;27.40;99.90;;;;;;5095288;28;20495;-57
2023/06/21 09:01:19;;;;;;;10.55;5.25;;;27.50;99.90;;;;;;5095078;28;20146;-57
2023/06/21 09:03:53;;;;;;;8.73;4.80;;;27.30;99.90;;;;;;5094469;28;20036;-57
2023/06/21 09:06:22;;;;;;;7.03;4.95;;;27.60;99.90;;;;;;5094706;28;20208;-57
2023/06/21 09:08:49;;;;;;;9.18;5.20;;;27.60;99.90;;;;;;5094442;28;20045;-57
2023/06/21 09:11:17;;;;;;;8.95;5.63;;;27.40;99.90;;;;;;5093761;28;20040;-57
2023/06/21 09:13:44;;;;;;;8.77;5.18;;;27.40;99.90;;;;;;5094326;28;20127;-57
2023/06/21 09:16:12;;;;;;;7.70;4.93;;;27.00;99.90;;;;;;5094478;28;20048;-57
2023/06/21 09:18:39;;;;;;;7.45;4.60;;;27.20;99.90;;;;;;5093622;28;20108;-57
2023/06/21 09:21:08;;;;;;;7.82;4.53;;;27.30;99.90;;;;;;5094862;28;20126;-57
2023/06/21 09:23:35;;;;;;;7.40;4.68;;;27.00;99.90;;;;;;5095424;28;20186;-57
2023/06/21 09:26:02;;;;;;;6.00;3.97;;;26.90;99.90;;;;;;5094821;28;20051;-57
2023/06/21 09:28:29;;;;;;;6.15;4.10;;;26.70;99.90;;;;;;5093663;28;20092;-57
2023/06/21 09:30:54;;;;;;;10.65;5.43;;;26.10;99.90;;;;;;5093011;28;20051;-57
2023/06/21 09:33:20;;;;;;;7.65;4.97;;;26.10;99.90;;;;;;5094435;28;20040;-57
2023/06/21 09:35:46;;;;;;;7.20;5.15;;;26.30;99.90;;;;;;5093559;28;20096;-57
2023/06/21 09:38:26;;;;;;;7.40;5.05;;;26.10;99.90;;;;;;5092771;28;20087;-57
2023/06/21 09:40:52;;;;;;;9.77;5.53;;;26.00;99.90;;;;;;5085445;28;20054;-57
2023/06/21 09:43:22;;;;;;;8.43;5.50;;;25.80;99.90;;;;;;5092961;28;20031;-57
2023/06/21 09:46:04;;;;;;;8.98;5.35;;;26.10;99.90;;;;;;5093149;28;20070;-57
2023/06/21 09:48:35;;;;;;;10.15;4.95;;;26.10;99.90;;;;;;5091791;28;20055;-57
2023/06/21 09:51:12;;;;;;;7.25;5.35;;;26.50;99.90;;;;;;5092925;28;20143;-57
2023/06/21 09:53:45;;;;;;;8.70;5.20;;;26.30;99.90;;;;;;5093193;28;20027;-57
2023/06/21 09:56:15;;;;;;;8.00;4.47;;;26.00;99.90;;;;;;5094406;28;20531;-57
2023/06/21 09:58:43;;;;;;;7.18;4.32;;;25.70;99.90;;;;;;5091460;28;20036;-57
2023/06/21 10:01:12;;;;;;;7.00;4.43;;;25.50;99.90;;;;;;5092742;28;20040;-56
2023/06/21 10:03:38;;;;;;;8.02;5.03;;;25.60;99.90;;;;;;5092831;28;20390;-57
2023/06/21 10:06:04;;;;;;;8.57;4.38;;;26.30;99.90;;;;;;5093905;28;20058;-58
2023/06/21 10:08:33;;;;;;;9.35;4.90;;;25.20;99.90;;;;;;5092432;28;20043;-57
2023/06/21 10:10:59;;;;;;;7.30;4.82;;;24.70;99.90;;;;;;5091953;28;20132;-57
2023/06/21 10:13:29;;;;;;;9.60;5.32;;;24.70;99.90;;;;;;5092988;28;20043;-57
2023/06/21 10:15:56;;;;;;;10.68;5.45;;;24.80;99.90;;;;;;5082239;28;20571;-57
2023/06/21 10:18:23;;;;;;;7.57;5.43;;;24.80;99.90;;;;;;5093440;28;20043;-57
2023/06/21 10:20:57;;;;;;;10.38;5.95;;;24.80;99.90;;;;;;5091712;28;20040;-57
2023/06/21 10:23:28;;;;;;;12.23;5.70;;;25.00;99.90;;;;;;5085077;28;20118;-57
2023/06/21 10:25:57;;;;;;;9.05;5.30;;;24.90;99.90;;;;;;5093272;28;20058;-57
2023/06/21 10:28:28;;;;;;;11.27;5.50;;;24.80;99.90;;;;;;5092049;28;20051;-57
2023/06/21 10:30:58;;;;;;;10.02;5.38;;;24.70;99.90;;;;;;5092418;28;20048;-57
2023/06/21 10:33:26;;;;;;;9.30;5.65;;;24.40;99.90;;;;;;5092361;28;20051;-57
2023/06/21 10:35:55;;;;;;;8.68;5.57;;;24.80;99.90;;;;;;5092391;28;20031;-56
2023/06/21 10:38:46;;;;;;;8.50;4.38;;;24.10;99.90;;;;;;5083394;28;20282;-57
2023/06/21 10:41:14;;;;;;;7.85;4.60;;;23.90;99.90;;;;;;5091786;28;20048;-57
2023/06/21 10:43:40;;;;;;;7.70;4.90;;;24.00;99.90;;;;;;5090089;28;20051;-57
2023/06/21 10:46:09;;;;;;;7.97;5.05;;;24.00;99.90;;;;;;5082826;28;20056;-57
2023/06/21 10:48:35;;;;;;;8.52;4.95;;;24.20;99.90;;;;;;5091047;28;20936;-57
2023/06/21 10:51:02;;;;;;;6.97;4.32;;;24.10;99.90;;;;;;5091921;28;20126;-57
2023/06/21 10:53:35;;;;;;;7.13;4.30;;;24.20;99.90;;;;;;5092511;28;20526;-57
2023/06/21 10:56:06;;;;;;;9.48;4.70;;;24.20;99.90;;;;;;5092781;28;20154;-57
2023/06/21 10:58:32;;;;;;;5.65;3.75;;;24.00;99.90;;;;;;5092126;28;20044;-57
2023/06/21 11:00:58;;;;;;;7.03;4.75;;;24.20;99.90;;;;;;5086863;28;20105;-57
2023/06/21 11:03:27;;;;;;;7.68;4.63;;;24.10;99.90;;;;;;5091927;28;20072;-57
2023/06/21 11:06:13;;;;;;;7.10;4.70;;;22.60;99.90;;;;;;5091993;28;20027;-57
2023/06/21 11:08:39;;;;;;;6.82;4.50;;;24.70;99.90;;;;;;5081450;28;20047;-57
2023/06/21 11:11:05;;;;;;;9.18;4.45;;;25.00;99.90;;;;;;5080239;28;20051;-57
2023/06/21 11:13:38;;;;;;;8.60;4.07;;;25.10;99.90;;;;;;5092020;28;20036;-57
2023/06/21 11:16:11;;;;;;;6.40;3.85;;;25.70;99.90;;;;;;5090873;28;20644;-57
2023/06/21 11:18:37;;;;;;;6.30;4.47;;;25.90;99.90;;;;;;5091733;28;21121;-57
2023/06/21 11:21:06;;;;;;;7.20;4.60;;;26.40;99.90;;;;;;5083629;28;20047;-57
2023/06/21 11:23:50;;;;;;;6.97;4.25;;;26.60;99.90;;;;;;5091931;28;20043;-57
2023/06/21 11:26:17;;;;;;;6.72;4.88;;;26.50;99.90;;;;;;5092621;28;20308;-57
2023/06/21 11:28:49;;;;;;;7.47;5.00;;;26.80;99.90;;;;;;5092950;28;20082;-57
2023/06/21 11:31:16;;;;;;;7.53;4.85;;;27.10;99.90;;;;;;5091303;28;20372;-57
2023/06/21 11:33:56;;;;;;;8.35;4.85;;;26.90;99.90;;;;;;5091514;28;20092;-57
2023/06/21 11:36:28;;;;;;;8.27;6.47;;;26.90;99.90;;;;;;5091402;28;20308;-57
2023/06/21 11:39:06;;;;;;;7.15;5.00;;;27.20;99.90;;;;;;5083964;28;20045;-57
2023/06/21 11:41:32;;;;;;;8.07;4.93;;;27.30;99.90;;;;;;5090634;28;20075;-57
2023/06/21 11:43:58;;;;;;;10.63;5.53;;;27.30;99.90;;;;;;5090207;28;20063;-57
2023/06/21 11:46:27;;;;;;;7.95;5.72;;;27.50;99.90;;;;;;5091726;28;20404;-57
2023/06/21 11:49:00;;;;;;;10.27;6.53;;;27.30;99.90;;;;;;5090134;28;20042;-57
2023/06/21 11:51:29;;;;;;;10.98;5.97;;;26.90;99.90;;;;;;5090973;28;20052;-57
2023/06/21 11:53:55;;;;;;;13.77;6.53;;;26.30;99.90;;;;;;5091690;28;20116;-57
2023/06/21 11:56:21;;;;;;;12.50;6.95;;;26.00;99.90;;;;;;5094009;28;20116;-57
2023/06/21 11:58:50;;;;;;;9.65;6.55;;;26.10;99.90;;;;;;5091132;28;20135;-57
2023/06/21 12:01:16;;;;;;;10.27;6.28;;;26.00;99.90;;;;;;5089911;28;20043;-57
2023/06/21 12:03:42;;;;;;;8.38;5.65;;;26.00;99.90;;;;;;5081569;28;20416;-56
2023/06/21 12:06:08;;;;;;;7.57;5.15;;;26.30;99.90;;;;;;5091974;28;20718;-57
2023/06/21 12:08:36;;;;;;;9.98;4.93;;;26.30;99.90;;;;;;5091336;28;20036;-57
2023/06/21 12:11:03;;;;;;;9.25;4.63;;;26.00;99.90;;;;;;5091288;28;20052;-57
2023/06/21 12:13:29;;;;;;;6.68;4.40;;;26.10;99.90;;;;;;5081285;28;20826;-57
2023/06/21 12:15:57;;;;;;;9.77;4.00;;;26.20;99.90;;;;;;5091975;28;20518;-56
2023/06/21 12:18:24;;;;;;;5.60;3.53;;;26.40;99.90;;;;;;5090740;28;20047;-56
2023/06/21 12:20:53;;;;;;;6.95;3.65;;;26.40;99.90;;;;;;5094214;28;20044;-57
2023/06/21 12:23:20;;;;;;;5.40;3.50;;;26.30;99.90;;;;;;5095775;28;20142;-57
2023/06/21 12:25:51;;;;;;;7.68;4.25;;;26.50;99.90;;;;;;5097298;28;20105;-57
2023/06/21 12:28:19;;;;;;;7.22;4.63;;;26.60;99.90;;;;;;5094743;28;20044;-57
2023/06/21 12:30:49;;;;;;;6.43;3.40;;;26.60;99.90;;;;;;5095683;28;20043;-57
2023/06/21 12:33:16;;;;;;;6.85;4.07;;;26.70;99.90;;;;;;5095465;28;20032;-57
2023/06/21 12:35:46;;;;;;;7.47;3.58;;;26.50;99.90;;;;;;5093955;28;20078;-56
2023/06/21 12:38:16;;;;;;;9.63;3.55;;;26.80;99.90;;;;;;5094288;28;20039;-57